Time;durP1;ratioP1;P1;durP2;ratioP2;P2;SDS_P1;SDS_P2;PMS_P1;PMS_P2;Temp;Humidity;BMP_temperature;BMP_pressure;BME280_temperature;BME280_humidity;BME280_pressure;Samples;Min_cycle;Max_cycle;Signal;HPM_P1;HPM_P2
2022/09/23 00:01:01;;;;;;;6.38;4.25;;;;;;;15.60;57.32;101734.63;5025793;28;20073;-78
2022/09/23 00:03:30;;;;;;;6.75;4.38;;;;;;;15.77;57.06;101751.84;5025239;28;20069;-79
2022/09/23 00:05:58;;;;;;;6.05;4.00;;;;;;;15.66;57.27;101750.13;5024908;28;20431;-79
2022/09/23 00:08:25;;;;;;;8.05;4.38;;;;;;;15.64;57.83;101767.34;5025747;28;20569;-78
2022/09/23 00:10:51;;;;;;;6.32;4.78;;;;;;;15.64;57.79;101767.34;5025575;28;20060;-79
2022/09/23 00:13:18;;;;;;;7.32;4.80;;;;;;;15.62;57.95;101763.94;5025187;28;20050;-78
2022/09/23 00:15:45;;;;;;;11.02;4.55;;;;;;;15.42;57.76;101731.81;5025500;28;20518;-79
2022/09/23 00:18:12;;;;;;;8.38;4.45;;;;;;;15.61;57.43;101760.44;5025776;28;20153;-78
2022/09/23 00:20:39;;;;;;;4.97;4.07;;;;;;;15.46;57.38;101733.25;5025927;28;20053;-79
2022/09/23 00:23:06;;;;;;;13.88;4.28;;;;;;;15.63;57.54;101757.59;5029466;28;20069;-76
2022/09/23 00:25:32;;;;;;;6.75;4.60;;;;;;;15.48;57.66;101744.63;5029261;28;20053;-77
2022/09/23 00:27:59;;;;;;;6.10;3.97;;;;;;;15.33;57.85;101732.66;5028753;28;20057;-78
2022/09/23 00:30:26;;;;;;;7.70;4.75;;;;;;;15.45;57.85;101746.75;5028590;28;20523;-79
2022/09/23 00:32:52;;;;;;;8.85;4.20;;;;;;;15.51;57.92;101747.03;5028780;28;20141;-79
2022/09/23 00:35:19;;;;;;;8.30;4.85;;;;;;;15.20;57.93;101708.03;5028508;28;20436;-78
2022/09/23 00:37:45;;;;;;;10.95;4.45;;;;;;;15.30;58.06;101722.25;5030188;28;20360;-79
2022/09/23 00:40:12;;;;;;;8.82;4.70;;;;;;;15.46;57.98;101746.63;5029809;28;20623;-78
2022/09/23 00:42:50;;;;;;;7.93;5.32;;;;;;;15.50;57.91;101744.50;5033579;28;20397;-80
2022/09/23 00:45:18;;;;;;;6.25;4.18;;;;;;;15.42;58.27;101747.88;5033362;28;20053;-77
2022/09/23 00:47:47;;;;;;;8.45;4.65;;;;;;;15.07;58.26;101690.44;5033017;28;20068;-78
2022/09/23 00:50:35;;;;;;;8.18;4.35;;;;;;;15.36;58.34;101737.72;5036671;28;20045;-79
2022/09/23 00:53:06;;;;;;;11.40;4.45;;;;;;;15.38;58.44;101746.47;5033489;28;20046;-79
2022/09/23 00:55:41;;;;;;;6.78;3.70;;;;;;;15.35;57.87;101730.69;5030989;28;20055;-78
2022/09/23 00:58:14;;;;;;;8.07;3.70;;;;;;;15.45;56.76;101723.50;5028694;28;20053;-79
2022/09/23 01:00:41;;;;;;;6.40;3.97;;;;;;;15.48;57.34;101736.59;5029356;28;20052;-78
2022/09/23 01:03:08;;;;;;;7.10;4.13;;;;;;;15.45;56.78;101730.69;5028215;28;20409;-80
2022/09/23 01:05:38;;;;;;;10.02;4.43;;;;;;;15.50;56.56;101709.72;5029775;28;20156;-79
2022/09/23 01:08:07;;;;;;;5.40;3.65;;;;;;;15.44;57.06;101705.78;5030125;28;20135;-78
2022/09/23 01:11:05;;;;;;;4.80;3.65;;;;;;;15.56;57.39;101738.59;5029022;28;20059;-80
2022/09/23 01:14:12;;;;;;;9.48;4.65;;;;;;;15.41;57.07;101724.78;5028601;28;20562;-78
2022/09/23 01:16:52;;;;;;;7.13;4.38;;;;;;;15.49;57.16;101737.47;5028572;28;20053;-79
2022/09/23 01:19:37;;;;;;;6.18;3.92;;;;;;;15.45;57.94;101728.88;5028144;28;20053;-78
2022/09/23 01:22:23;;;;;;;9.18;4.28;;;;;;;15.44;57.65;101727.19;5027053;28;20145;-79
2022/09/23 01:25:15;;;;;;;7.40;4.05;;;;;;;15.33;57.26;101717.44;5028137;28;20412;-76
2022/09/23 01:28:20;;;;;;;6.43;3.85;;;;;;;15.36;57.43;101727.03;5027834;28;20387;-77
2022/09/23 01:31:00;;;;;;;5.03;3.55;;;;;;;15.24;57.59;101706.75;5027876;28;20452;-76
2022/09/23 01:33:57;;;;;;;7.63;3.90;;;;;;;15.37;57.57;101713.53;5027205;28;20056;-80
2022/09/23 01:36:44;;;;;;;6.40;3.95;;;;;;;15.22;57.40;101692.66;5027449;28;20088;-79
2022/09/23 01:39:32;;;;;;;10.18;3.65;;;;;;;15.37;57.31;101723.38;5026115;28;20224;-79
2022/09/23 01:42:06;;;;;;;6.18;3.28;;;;;;;15.27;57.13;101695.78;5026541;28;20134;-79
2022/09/23 01:44:41;;;;;;;4.95;3.65;;;;;;;15.33;56.82;101697.88;5027005;28;20053;-80
2022/09/23 01:47:49;;;;;;;6.00;3.67;;;;;;;15.49;56.45;101716.91;5027645;28;20059;-81
2022/09/23 01:53:14;;;;;;;7.35;3.25;;;;;;;15.44;56.39;101716.47;5008484;28;20355;-80
2022/09/23 01:55:48;;;;;;;7.63;3.53;;;;;;;15.37;56.04;101691.28;5006838;28;20490;-79
2022/09/23 01:58:25;;;;;;;3.42;3.13;;;;;;;15.37;56.62;101718.88;5008408;28;20330;-80
2022/09/23 02:01:00;;;;;;;3.38;3.08;;;;;;;15.17;57.17;101696.63;5007360;28;20046;-81
2022/09/23 02:03:46;;;;;;;4.60;3.78;;;;;;;15.33;57.43;101719.28;5006898;28;20081;-80
2022/09/23 02:06:15;;;;;;;4.13;3.13;;;;;;;15.21;57.62;101701.69;5006669;28;20056;-78
2022/09/23 02:08:51;;;;;;;6.65;3.22;;;;;;;14.97;57.04;101665.47;5007465;28;20119;-78
2022/09/23 02:11:18;;;;;;;5.38;3.20;;;;;;;15.36;57.24;101727.03;5008725;28;20056;-80
2022/09/23 02:14:21;;;;;;;4.55;3.03;;;;;;;15.27;56.86;101714.50;5008490;28;20049;-80
2022/09/23 02:16:50;;;;;;;4.45;3.28;;;;;;;15.22;56.75;101711.38;4998499;28;20067;-79
2022/09/23 02:19:39;;;;;;;5.07;3.40;;;;;;;15.24;57.23;101736.16;5008833;28;20050;-76
2022/09/23 02:22:33;;;;;;;7.00;3.95;;;;;;;15.10;57.07;101735.59;5007823;28;20092;-77
2022/09/23 02:25:00;;;;;;;7.40;3.33;;;;;;;15.13;56.88;101737.16;5007552;28;20056;-77
2022/09/23 02:27:46;;;;;;;3.75;3.05;;;;;;;14.83;57.69;101682.78;5007827;28;20096;-78
2022/09/23 02:30:21;;;;;;;5.72;3.53;;;;;;;15.07;57.90;101722.53;5007312;28;20406;-77
2022/09/23 02:32:55;;;;;;;4.57;3.65;;;;;;;15.15;58.09;101732.53;5006521;28;20053;-78
2022/09/23 02:35:25;;;;;;;7.22;3.55;;;;;;;15.07;58.43;101721.66;5007549;28;20111;-79
2022/09/23 02:38:16;;;;;;;7.22;3.97;;;;;;;15.07;58.72;101733.22;5018141;28;20045;-78
2022/09/23 02:40:52;;;;;;;10.93;3.95;;;;;;;14.71;58.67;101674.03;5027078;28;20053;-78
2022/09/23 02:43:58;;;;;;;9.73;4.30;;;;;;;15.05;58.34;101729.84;5026323;28;20083;-79
2022/09/23 02:46:26;;;;;;;6.57;3.92;;;;;;;14.48;57.90;101613.75;5027199;28;20053;-79
2022/09/23 02:49:02;;;;;;;6.55;4.82;;;;;;;15.14;56.96;101709.41;5026021;28;20549;-76
2022/09/23 02:51:36;;;;;;;6.68;3.90;;;;;;;15.23;57.09;101715.78;5025870;28;20045;-78
2022/09/23 02:54:06;;;;;;;6.68;3.72;;;;;;;15.13;57.94;101721.94;5027606;28;20459;-79
2022/09/23 02:56:34;;;;;;;5.80;4.38;;;;;;;14.83;58.22;101696.16;5027564;28;20063;-78
2022/09/23 02:59:01;;;;;;;8.43;4.45;;;;;;;14.99;58.20;101722.34;5028852;28;20145;-78
2022/09/23 03:02:05;;;;;;;7.03;4.10;;;;;;;14.92;58.64;101729.22;5026169;28;20140;-79
2022/09/23 03:05:22;;;;;;;8.30;5.53;;;;;;;14.91;58.48;101724.88;5026147;28;20045;-79
2022/09/23 03:08:24;;;;;;;9.15;6.15;;;;;;;14.71;58.03;101703.44;5024151;28;20254;-79
2022/09/23 03:11:04;;;;;;;7.63;4.60;;;;;;;14.91;57.85;101727.53;4949828;28;20065;-78
2022/09/23 03:14:06;;;;;;;7.32;4.22;;;;;;;14.83;57.89;101730.03;5021288;28;20080;-78
2022/09/23 03:16:46;;;;;;;8.23;4.95;;;;;;;14.73;58.29;101722.88;5022796;28;20046;-77
2022/09/23 03:19:32;;;;;;;5.50;4.50;;;;;;;14.61;58.25;101721.28;5026347;28;20052;-79
2022/09/23 03:21:59;;;;;;;11.30;4.80;;;;;;;14.63;58.41;101727.31;5027489;28;20152;-77
2022/09/23 03:24:32;;;;;;;8.95;4.95;;;;;;;14.66;58.58;101734.22;5025894;28;20061;-80
2022/09/23 03:27:12;;;;;;;5.93;4.43;;;;;;;14.51;57.84;101696.28;5027889;28;20065;-77
2022/09/23 03:29:46;;;;;;;7.95;4.60;;;;;;;14.59;58.12;101731.25;5026251;28;20084;-79
2022/09/23 03:32:19;;;;;;;6.68;4.10;;;;;;;14.61;58.83;101734.66;5025909;28;20237;-77
2022/09/23 03:34:50;;;;;;;6.90;4.60;;;;;;;14.47;58.31;101713.59;5025384;28;20067;-77
2022/09/23 03:37:54;;;;;;;8.63;4.78;;;;;;;14.18;58.14;101650.22;5024891;28;20128;-78
2022/09/23 03:40:31;;;;;;;5.75;4.95;;;;;;;14.64;58.58;101725.50;5027126;28;20053;-77
2022/09/23 03:43:00;;;;;;;4.45;4.00;;;;;;;14.18;58.86;101663.56;5025908;28;20127;-79
2022/09/23 03:45:31;;;;;;;11.98;5.15;;;;;;;14.57;58.63;101725.19;5025635;28;20124;-79
2022/09/23 03:47:57;;;;;;;5.45;4.43;;;;;;;14.35;58.47;101698.66;5025737;28;20056;-80
2022/09/23 03:50:24;;;;;;;9.05;4.25;;;;;;;14.50;58.54;101718.66;5026189;28;20493;-79
2022/09/23 03:52:51;;;;;;;6.15;4.15;;;;;;;14.07;58.65;101644.97;5030261;28;20052;-78
2022/09/23 03:55:18;;;;;;;9.38;5.35;;;;;;;14.32;58.47;101671.22;5028744;28;20053;-76
2022/09/23 03:57:45;;;;;;;5.78;4.60;;;;;;;14.46;58.72;101722.56;5025822;28;20558;-78
2022/09/23 04:00:13;;;;;;;8.85;5.18;;;;;;;14.34;59.36;101713.81;5025635;28;20336;-80
2022/09/23 04:02:40;;;;;;;9.40;7.38;;;;;;;14.36;59.03;101719.88;5026345;28;20107;-79
2022/09/23 04:05:08;;;;;;;10.15;5.40;;;;;;;14.33;58.81;101699.59;5025861;28;20091;-80
2022/09/23 04:07:34;;;;;;;11.57;5.03;;;;;;;14.38;58.63;101707.22;5025607;28;20053;-79
2022/09/23 04:10:02;;;;;;;9.25;5.13;;;;;;;14.32;58.89;101700.59;5026853;28;20045;-79
2022/09/23 04:12:28;;;;;;;8.55;5.65;;;;;;;14.42;58.73;101710.50;5025711;28;20060;-78
2022/09/23 04:14:55;;;;;;;8.85;5.30;;;;;;;13.41;59.06;101550.09;5025580;28;20050;-80
2022/09/23 04:17:21;;;;;;;8.57;5.55;;;;;;;14.66;58.20;101705.69;5025733;28;20523;-79
2022/09/23 04:19:48;;;;;;;16.25;5.90;;;;;;;14.46;58.78;101701.19;5007769;28;20510;-78
2022/09/23 04:22:14;;;;;;;11.23;5.40;;;;;;;14.19;59.44;101689.28;5005644;28;20046;-77
2022/09/23 04:24:41;;;;;;;8.15;4.97;;;;;;;14.02;58.97;101656.03;5021497;28;20481;-78
2022/09/23 04:27:08;;;;;;;7.32;5.07;;;;;;;14.20;59.21;101707.00;5020324;28;20237;-79
2022/09/23 04:29:34;;;;;;;9.90;5.60;;;;;;;13.98;60.17;101685.78;5015969;28;20400;-80
2022/09/23 04:32:01;;;;;;;8.30;5.18;;;;;;;13.96;60.39;101682.44;5015422;28;20432;-78
2022/09/23 04:34:28;;;;;;;6.32;5.75;;;;;;;14.12;60.21;101706.81;5013007;28;20077;-80
2022/09/23 04:36:54;;;;;;;11.10;6.05;;;;;;;13.84;59.62;101661.16;5010511;28;20037;-79
2022/09/23 04:39:24;;;;;;;9.77;6.15;;;;;;;13.93;59.35;101667.50;5010184;28;20385;-80
2022/09/23 04:41:50;;;;;;;11.73;7.00;;;;;;;14.17;58.75;101696.56;5004223;28;20056;-77
2022/09/23 04:44:17;;;;;;;12.88;5.82;;;;;;;14.31;58.95;101712.25;5002766;28;20096;-80
2022/09/23 04:46:48;;;;;;;14.05;6.13;;;;;;;14.30;59.04;101707.06;5014027;28;20092;-79
2022/09/23 04:49:17;;;;;;;12.10;6.10;;;;;;;14.14;59.35;101702.19;5011583;28;20234;-80
2022/09/23 04:51:43;;;;;;;11.48;6.70;;;;;;;14.13;59.81;101705.84;5002315;28;20137;-78
2022/09/23 04:54:13;;;;;;;7.28;5.43;;;;;;;13.63;59.78;101623.78;5002899;28;20425;-81
2022/09/23 04:56:40;;;;;;;12.35;6.32;;;;;;;13.40;60.33;101599.09;5003328;28;20050;-77
2022/09/23 04:59:06;;;;;;;12.18;6.28;;;;;;;14.02;60.89;101703.25;5003926;28;20061;-80
2022/09/23 05:01:33;;;;;;;8.00;5.72;;;;;;;13.97;61.27;101705.47;5004515;28;20065;-78
2022/09/23 05:04:05;;;;;;;12.43;8.57;;;;;;;13.98;61.19;101707.16;5004911;28;20061;-77
2022/09/23 05:06:33;;;;;;;9.75;6.40;;;;;;;13.58;61.22;101642.03;5005379;28;20258;-77
2022/09/23 05:09:02;;;;;;;9.27;5.43;;;;;;;13.90;61.28;101695.31;5008699;28;20494;-77
2022/09/23 05:11:30;;;;;;;12.98;5.75;;;;;;;13.82;61.51;101692.47;5033138;28;20052;-78
2022/09/23 05:13:57;;;;;;;14.05;6.30;;;;;;;13.58;61.35;101651.84;5027065;28;20523;-76
2022/09/23 05:16:25;;;;;;;10.30;5.90;;;;;;;13.51;61.46;101638.19;5011402;28;20052;-77
2022/09/23 05:18:53;;;;;;;7.30;5.32;;;;;;;13.89;61.13;101698.97;5009634;28;20318;-79
2022/09/23 05:21:22;;;;;;;10.68;5.40;;;;;;;13.85;61.14;101675.34;5009613;28;20576;-77
2022/09/23 05:23:53;;;;;;;6.75;5.82;;;;;;;13.60;61.15;101636.56;5023638;28;20049;-77
2022/09/23 05:26:21;;;;;;;13.43;5.90;;;;;;;13.98;61.50;101693.81;5022506;28;20084;-76
2022/09/23 05:28:47;;;;;;;9.02;5.82;;;;;;;13.98;61.51;101692.00;5013578;28;20161;-77
2022/09/23 05:31:17;;;;;;;13.85;5.90;;;;;;;14.02;61.23;101698.75;5029070;28;20140;-78
2022/09/23 05:33:53;;;;;;;;;;;;;;;14.05;61.58;101702.97;5028616;28;20486;-78
2022/09/23 05:36:21;;;;;;;10.18;5.70;;;;;;;14.04;60.82;101691.47;5028039;28;19971;-79
2022/09/23 05:38:48;;;;;;;8.05;5.75;;;;;;;14.15;60.89;101703.91;5024059;28;20126;-77
2022/09/23 05:41:16;;;;;;;14.10;5.95;;;;;;;14.10;60.67;101679.38;5008624;28;20394;-77
2022/09/23 05:43:44;;;;;;;8.98;5.63;;;;;;;14.32;59.97;101700.59;5008191;28;20045;-78
2022/09/23 05:46:17;;;;;;;7.00;5.40;;;;;;;14.37;60.89;101708.22;5008365;28;20493;-77
2022/09/23 05:48:46;;;;;;;11.57;5.70;;;;;;;14.33;59.59;101691.59;5016259;28;20056;-78
2022/09/23 05:51:24;;;;;;;7.63;4.47;;;;;;;14.36;58.28;101684.28;5021409;28;20112;-78
2022/09/23 05:53:57;;;;;;;12.23;4.90;;;;;;;14.09;58.66;101637.66;5008417;28;20050;-78
2022/09/23 05:56:26;;;;;;;8.20;4.63;;;;;;;14.48;58.78;101699.25;5008237;28;20057;-78
2022/09/23 05:58:55;;;;;;;6.60;4.60;;;;;;;14.46;58.63;101693.19;5009271;28;20072;-78
2022/09/23 06:01:24;;;;;;;9.00;4.80;;;;;;;14.49;58.27;101690.25;5008052;28;20050;-78
2022/09/23 06:03:52;;;;;;;7.15;4.03;;;;;;;14.70;58.09;101708.91;5007047;28;20445;-78
2022/09/23 06:06:26;;;;;;;9.68;4.25;;;;;;;14.61;57.77;101693.69;5007824;28;20513;-78
2022/09/23 06:08:52;;;;;;;4.82;4.32;;;;;;;14.59;56.77;101675.13;5007823;28;20168;-78
2022/09/23 06:11:20;;;;;;;5.70;4.00;;;;;;;14.86;56.67;101703.06;5008534;28;20132;-78
2022/09/23 06:13:48;;;;;;;8.57;3.97;;;;;;;14.86;57.09;101703.06;5017633;28;20107;-78
2022/09/23 06:16:15;;;;;;;7.40;4.35;;;;;;;14.67;56.28;101655.75;5028479;28;20128;-78
2022/09/23 06:18:43;;;;;;;5.07;4.40;;;;;;;14.66;56.27;101656.69;5026425;28;20469;-78
2022/09/23 06:21:15;;;;;;;6.45;4.68;;;;;;;14.98;56.51;101695.72;5026905;28;20210;-79
2022/09/23 06:23:44;;;;;;;12.55;4.53;;;;;;;14.95;56.25;101688.84;5027005;28;20400;-79
2022/09/23 06:26:13;;;;;;;9.60;4.43;;;;;;;15.09;56.70;101704.47;5023236;28;20050;-78
2022/09/23 06:28:41;;;;;;;14.80;5.07;;;;;;;15.04;56.54;101682.66;5006790;28;20154;-79
2022/09/23 06:31:16;;;;;;;10.75;4.43;;;;;;;15.19;56.14;101685.75;5006995;28;20067;-80
2022/09/23 06:33:44;;;;;;;8.18;4.32;;;;;;;15.30;55.90;101699.00;5008514;28;20054;-81
2022/09/23 06:36:12;;;;;;;10.27;4.70;;;;;;;15.36;56.21;101700.28;5006578;28;20054;-80
2022/09/23 06:38:56;;;;;;;9.88;4.03;;;;;;;15.47;55.47;101691.28;5008437;28;20099;-80
2022/09/23 06:41:22;;;;;;;11.18;4.15;;;;;;;15.35;55.09;101664.66;5027379;28;20049;-80
2022/09/23 06:43:50;;;;;;;12.30;5.03;;;;;;;15.24;54.93;101631.84;5026061;28;20579;-80
2022/09/23 06:46:17;;;;;;;12.93;4.07;;;;;;;15.74;54.58;101687.88;5026588;28;20456;-81
2022/09/23 06:48:44;;;;;;;11.95;4.07;;;;;;;15.72;54.91;101673.78;5020030;28;20315;-80
2022/09/23 06:51:17;;;;;;;7.25;3.83;;;;;;;15.70;55.31;101675.75;5012555;28;20133;-80
2022/09/23 06:53:48;;;;;;;4.15;3.45;;;;;;;15.60;55.37;101638.28;5028384;28;20045;-80
2022/09/23 06:56:16;;;;;;;5.13;3.75;;;;;;;16.02;54.88;101697.69;5029035;28;20133;-81
2022/09/23 06:58:43;;;;;;;9.02;3.45;;;;;;;16.16;54.23;101692.84;5026071;28;20444;-81
2022/09/23 07:01:14;;;;;;;6.00;4.22;;;;;;;15.64;54.20;101601.38;5025360;28;20095;-81
2022/09/23 07:03:42;;;;;;;6.03;3.25;;;;;;;16.08;54.37;101676.66;5023827;28;20118;-80
2022/09/23 07:06:09;;;;;;;5.82;4.10;;;;;;;16.25;54.23;101681.25;5005923;28;20045;-80
2022/09/23 07:08:36;;;;;;;8.23;4.00;;;;;;;15.85;54.39;101604.72;5005999;28;20096;-80
2022/09/23 07:11:05;;;;;;;6.50;3.67;;;;;;;16.37;54.09;101666.66;5005363;28;20042;-79
2022/09/23 07:13:33;;;;;;;6.60;3.65;;;;;;;16.62;53.60;101699.13;4974403;28;20184;-80
2022/09/23 07:16:01;;;;;;;9.20;3.88;;;;;;;15.96;53.46;101580.41;4982798;28;20132;-81
2022/09/23 07:18:32;;;;;;;13.98;4.15;;;;;;;16.09;54.35;101600.66;4970515;28;20054;-79
2022/09/23 07:21:07;;;;;;;13.90;5.00;;;;;;;16.75;54.38;101706.81;5005007;28;20518;-80
2022/09/23 07:23:34;;;;;;;8.60;4.47;;;;;;;16.83;54.88;101706.94;5005935;28;20477;-80
2022/09/23 07:26:00;;;;;;;12.75;4.78;;;;;;;16.74;54.79;101689.88;5018768;28;20050;-79
2022/09/23 07:28:27;;;;;;;8.65;4.20;;;;;;;16.95;54.74;101718.31;5009300;28;20150;-78
2022/09/23 07:30:55;;;;;;;9.48;4.50;;;;;;;16.76;53.13;101679.84;5005782;28;20057;-81
2022/09/23 07:33:28;;;;;;;4.55;4.00;;;;;;;16.95;53.92;101704.91;5004097;28;20096;-79
2022/09/23 07:36:03;;;;;;;11.02;5.03;;;;;;;17.08;53.74;101718.78;4984151;28;20056;-80
2022/09/23 07:38:30;;;;;;;7.95;4.00;;;;;;;16.78;54.27;101675.22;4955942;28;20337;-80
2022/09/23 07:41:01;;;;;;;5.90;4.10;;;;;;;17.12;53.70;101720.16;4993348;28;20053;-79
2022/09/23 07:43:30;;;;;;;6.60;3.30;;;;;;;17.02;52.94;101695.25;5023068;28;20555;-79
2022/09/23 07:46:05;;;;;;;6.25;3.55;;;;;;;16.49;53.21;101602.16;5025421;28;20080;-79
2022/09/23 07:48:33;;;;;;;5.05;2.80;;;;;;;17.19;51.60;101699.78;5026427;28;20060;-80
2022/09/23 07:51:09;;;;;;;3.42;2.65;;;;;;;17.40;51.41;101728.13;5026347;28;20148;-81
2022/09/23 07:53:36;;;;;;;4.63;3.05;;;;;;;17.55;50.31;101732.00;5024355;28;20582;-80
2022/09/23 07:56:07;;;;;;;9.10;2.78;;;;;;;17.54;51.06;101732.97;5024345;28;20103;-80
2022/09/23 07:58:34;;;;;;;6.40;2.45;;;;;;;16.88;51.69;101638.44;5023615;28;20046;-81
2022/09/23 08:01:06;;;;;;;5.82;2.80;;;;;;;17.32;50.52;101691.34;5024285;28;20560;-80
2022/09/23 08:03:34;;;;;;;5.95;2.58;;;;;;;17.63;50.18;101732.03;5024490;28;20062;-81
2022/09/23 08:06:10;;;;;;;8.70;2.67;;;;;;;17.68;49.18;101729.72;5024533;28;20052;-79
2022/09/23 08:08:39;;;;;;;6.00;2.55;;;;;;;17.72;49.43;101728.44;5024596;28;20053;-79
2022/09/23 08:11:09;;;;;;;7.50;2.70;;;;;;;17.78;49.96;101728.81;5024880;28;20452;-81
2022/09/23 08:13:36;;;;;;;2.60;2.40;;;;;;;17.90;49.04;101727.59;5024552;28;20057;-80
2022/09/23 08:16:03;;;;;;;5.22;1.92;;;;;;;17.73;48.46;101705.94;5024201;28;20121;-80
2022/09/23 08:18:30;;;;;;;4.05;2.30;;;;;;;17.89;48.78;101723.22;5024236;28;20045;-81
2022/09/23 08:20:56;;;;;;;3.05;2.03;;;;;;;17.97;48.49;101722.44;5024108;28;20579;-81
2022/09/23 08:23:23;;;;;;;2.38;2.17;;;;;;;18.03;48.52;101719.09;5024247;28;20053;-81
2022/09/23 08:25:59;;;;;;;5.28;2.30;;;;;;;17.42;48.16;101618.78;5024276;28;20166;-80
2022/09/23 08:28:27;;;;;;;3.63;2.75;;;;;;;17.84;47.99;101663.72;5024068;28;20185;-80
2022/09/23 08:30:54;;;;;;;5.97;2.60;;;;;;;18.09;47.84;101711.25;5024111;28;20812;-81
2022/09/23 08:33:21;;;;;;;4.85;2.22;;;;;;;18.27;47.61;101726.47;5024081;28;20359;-79
2022/09/23 08:35:49;;;;;;;5.70;2.28;;;;;;;18.08;48.08;101703.34;5023861;28;20510;-81
2022/09/23 08:38:17;;;;;;;2.47;2.22;;;;;;;18.18;47.66;101724.72;5024661;28;20437;-81
2022/09/23 08:40:47;;;;;;;3.75;2.17;;;;;;;18.20;47.95;101725.41;5024208;28;20133;-82
2022/09/23 08:43:27;;;;;;;3.90;2.22;;;;;;;17.79;47.78;101634.66;5043118;28;20512;-81
2022/09/23 08:45:56;;;;;;;4.40;2.20;;;;;;;18.56;47.19;101729.63;5027907;28;20081;-81
2022/09/23 08:48:29;;;;;;;5.00;2.38;;;;;;;18.48;47.08;101716.16;5028030;28;20130;-79
2022/09/23 08:51:05;;;;;;;4.13;2.20;;;;;;;18.73;47.23;101735.09;5028160;28;20055;-81
2022/09/23 08:53:37;;;;;;;2.50;2.30;;;;;;;18.42;46.50;101679.16;5027465;28;20064;-81
2022/09/23 08:56:10;;;;;;;4.97;2.20;;;;;;;18.70;46.39;101713.91;5028246;28;21004;-80
2022/09/23 08:59:06;;;;;;;3.10;2.00;;;;;;;18.78;46.43;101722.84;5028130;28;20117;-77
2022/09/23 09:01:55;;;;;;;4.82;2.60;;;;;;;18.84;46.51;101721.38;5027860;28;20092;-79
2022/09/23 09:04:31;;;;;;;7.55;2.53;;;;;;;18.99;45.85;101697.38;5027686;28;20049;-81
2022/09/23 09:07:12;;;;;;;2.80;1.65;;;;;;;19.29;45.42;101714.72;5028488;28;20064;-79
2022/09/23 09:10:05;;;;;;;2.72;2.20;;;;;;;19.37;45.30;101706.66;5028124;28;20141;-80
2022/09/23 09:13:06;;;;;;;2.38;2.17;;;;;;;19.58;45.28;101708.84;5028631;28;20396;-79
2022/09/23 09:15:44;;;;;;;2.20;2.08;;;;;;;19.78;44.29;101697.75;5028145;28;20050;-79
2022/09/23 09:18:20;;;;;;;2.33;1.85;;;;;;;19.64;43.36;101658.88;5028193;28;20077;-80
2022/09/23 09:21:07;;;;;;;3.65;2.20;;;;;;;20.04;43.49;101689.44;5027837;28;20065;-79
2022/09/23 09:23:48;;;;;;;5.07;1.70;;;;;;;20.23;43.47;101694.44;5028577;28;20542;-79
2022/09/23 09:26:23;;;;;;;4.57;2.10;;;;;;;20.25;42.99;101678.94;5028192;28;20061;-79
2022/09/23 09:29:08;;;;;;;3.65;1.88;;;;;;;20.48;42.36;101689.81;5027835;28;20061;-80
2022/09/23 09:31:56;;;;;;;10.35;2.20;;;;;;;20.47;42.11;101649.53;5027584;28;20057;-78
2022/09/23 09:34:22;;;;;;;3.60;2.17;;;;;;;20.88;42.04;101679.03;5029161;28;20103;-79
2022/09/23 09:37:00;;;;;;;5.20;2.30;;;;;;;21.16;40.97;101681.19;5028656;28;20060;-80
2022/09/23 09:39:34;;;;;;;2.83;2.00;;;;;;;21.03;41.60;101654.81;5026799;28;20049;-80
2022/09/23 09:42:03;;;;;;;4.93;1.98;;;;;;;21.12;41.21;101654.56;5032253;28;20064;-80
2022/09/23 09:44:35;;;;;;;4.50;2.40;;;;;;;21.53;40.70;101692.06;5048446;28;20053;-79
2022/09/23 09:47:02;;;;;;;2.25;2.05;;;;;;;21.62;40.59;101679.31;5030775;28;20045;-81
2022/09/23 09:49:47;;;;;;;6.07;1.95;;;;;;;21.70;39.71;101662.19;5030633;28;20103;-80
2022/09/23 09:52:24;;;;;;;2.72;2.22;;;;;;;21.95;40.07;101681.72;5028873;28;20049;-79
2022/09/23 09:54:52;;;;;;;2.33;2.05;;;;;;;22.15;39.26;101679.28;5029251;28;20095;-79
2022/09/23 09:57:36;;;;;;;3.25;1.98;;;;;;;22.29;38.82;101686.59;4976741;28;20577;-78
2022/09/23 10:00:21;;;;;;;;;;;;;;;22.38;37.64;101680.06;5030139;28;20148;-79
2022/09/23 10:03:03;;;;;;;4.05;1.98;;;;;;;21.90;37.47;101576.84;5015803;28;19932;-78
2022/09/23 10:05:45;;;;;;;6.40;1.90;;;;;;;22.44;37.33;101645.16;5025600;28;20144;-79
2022/09/23 10:08:34;;;;;;;3.47;2.13;;;;;;;22.82;37.13;101662.03;5026711;28;20065;-79
2022/09/23 10:11:17;;;;;;;4.28;2.30;;;;;;;22.98;37.18;101660.97;5028657;28;20053;-79
2022/09/23 10:14:25;;;;;;;2.65;1.42;;;;;;;23.01;36.95;101649.75;5027355;28;20055;-78
2022/09/23 10:17:04;;;;;;;1.83;1.73;;;;;;;23.25;36.22;101656.66;5026504;28;20584;-78
2022/09/23 10:19:33;;;;;;;5.90;2.35;;;;;;;23.28;36.59;101633.75;5027549;28;20057;-79
2022/09/23 10:22:15;;;;;;;3.92;2.13;;;;;;;23.51;36.50;101653.34;5026709;28;20539;-80
2022/09/23 10:24:51;;;;;;;9.00;2.13;;;;;;;23.55;36.36;101646.50;5027093;28;20088;-81
2022/09/23 10:27:33;;;;;;;7.43;2.03;;;;;;;23.74;35.71;101646.84;5027860;28;20049;-77
2022/09/23 10:30:06;;;;;;;3.80;1.95;;;;;;;23.41;35.80;101558.00;5026749;28;20076;-81
2022/09/23 10:32:43;;;;;;;3.88;1.95;;;;;;;24.03;35.20;101619.50;5010630;28;20056;-79
2022/09/23 10:35:12;;;;;;;2.17;1.90;;;;;;;24.07;34.75;101644.34;5007079;28;20046;-79
2022/09/23 10:37:47;;;;;;;2.03;1.83;;;;;;;24.01;34.66;101624.28;5016656;28;20536;-79
2022/09/23 10:46:38;;;;;;;2.92;1.88;;;;;;;24.45;33.92;101635.75;5018283;28;20503;-80
2022/09/23 10:49:24;;;;;;;5.07;1.67;;;;;;;24.39;33.69;101634.69;5016482;28;20054;-81
2022/09/23 10:52:24;;;;;;;4.25;2.03;;;;;;;24.68;34.07;101643.56;5008007;28;20042;-81
2022/09/23 10:55:03;;;;;;;2.25;1.92;;;;;;;24.97;34.00;101644.28;5005433;28;20059;-81
2022/09/23 10:58:13;;;;;;;4.03;1.80;;;;;;;25.12;33.21;101620.47;5005994;28;20132;-80
2022/09/23 11:00:58;;;;;;;1.80;1.70;;;;;;;25.48;33.12;101638.25;4989364;28;20052;-79
2022/09/23 11:03:37;;;;;;;3.30;2.90;;;;;;;25.65;32.26;101625.91;5006674;28;20064;-80
2022/09/23 11:06:13;;;;;;;2.25;1.90;;;;;;;25.73;31.62;101639.28;5005580;28;20053;-80
2022/09/23 11:08:57;;;;;;;5.50;2.47;;;;;;;25.89;31.52;101629.03;5005832;28;20088;-80
2022/09/23 11:11:42;;;;;;;3.13;2.58;;;;;;;25.91;31.45;101613.34;5006113;28;20096;-80
2022/09/23 11:14:18;;;;;;;2.33;1.95;;;;;;;25.94;31.45;101618.34;5006406;28;20060;-81
2022/09/23 11:17:04;;;;;;;2.05;1.83;;;;;;;26.07;30.79;101623.75;5005885;28;20061;-80
2022/09/23 11:19:54;;;;;;;2.80;1.77;;;;;;;25.84;30.91;101566.25;5002933;28;20104;-80
2022/09/23 11:22:36;;;;;;;3.60;1.70;;;;;;;26.31;31.66;101619.47;5003504;28;20056;-79
2022/09/23 11:25:06;;;;;;;5.10;2.10;;;;;;;26.17;31.16;101556.09;5005226;28;20128;-80
2022/09/23 11:28:10;;;;;;;2.58;1.92;;;;;;;26.55;30.30;101603.44;5003892;28;20061;-80
2022/09/23 11:31:15;;;;;;;5.25;3.50;;;;;;;26.34;30.40;101574.66;5004781;28;20068;-80
2022/09/23 11:33:48;;;;;;;2.17;1.75;;;;;;;25.90;30.19;101546.34;5005981;28;20049;-79
2022/09/23 11:36:29;;;;;;;3.08;1.77;;;;;;;26.32;30.10;101598.53;5005239;28;20062;-77
2022/09/23 11:39:00;;;;;;;3.53;1.92;;;;;;;25.92;30.50;101512.44;5004910;28;20124;-81
2022/09/23 11:41:34;;;;;;;2.53;1.92;;;;;;;26.43;30.19;101548.81;5006583;28;20064;-80
2022/09/23 11:44:16;;;;;;;2.22;1.83;;;;;;;26.62;29.25;101544.34;5005402;28;20147;-80
2022/09/23 11:46:53;;;;;;;4.68;1.63;;;;;;;26.84;29.05;101580.22;5005231;28;20072;-81
2022/09/23 11:49:57;;;;;;;2.03;1.70;;;;;;;26.97;28.93;101580.13;5016051;28;20355;-79
2022/09/23 11:52:30;;;;;;;3.47;2.20;;;;;;;26.60;28.90;101520.06;5024518;28;20087;-81
2022/09/23 11:55:14;;;;;;;12.15;2.05;;;;;;;26.53;29.34;101581.00;5026143;28;20053;-79
2022/09/23 11:57:51;;;;;;;7.20;1.60;;;;;;;26.13;30.20;101573.91;5026549;28;20694;-80
2022/09/23 12:00:33;;;;;;;2.30;1.80;;;;;;;26.04;30.43;101575.19;5024992;28;20118;-80
2022/09/23 12:03:16;;;;;;;2.65;2.03;;;;;;;25.93;29.72;101570.44;5021836;28;20343;-81
2022/09/23 12:06:11;;;;;;;5.32;1.63;;;;;;;25.51;30.38;101559.00;5023064;28;20314;-80
2022/09/23 12:08:38;;;;;;;3.00;2.25;;;;;;;25.44;30.84;101550.03;5033225;28;20115;-80